Time;durP1;ratioP1;P1;durP2;ratioP2;P2;SDS_P1;SDS_P2;PMS_P1;PMS_P2;Temp;Humidity;BMP_temperature;BMP_pressure;BME280_temperature;BME280_humidity;BME280_pressure;Samples;Min_cycle;Max_cycle;Signal;HPM_P1;HPM_P2
2022/05/21 00:00:57;;;;;;;7.20;5.20;;;16.40;98.80;;;;;;6171778;23;20445;-84
2022/05/21 00:04:52;;;;;;;7.40;5.10;;;16.30;98.90;;;;;;6177544;23;20393;-89
2022/05/21 00:07:29;;;;;;;6.43;5.83;;;16.30;99.00;;;;;;6185584;23;20480;-88
2022/05/21 00:12:58;;;;;;;7.43;6.60;;;16.20;98.80;;;;;;6189957;23;20460;-87
2022/05/21 00:15:33;;;;;;;9.00;7.20;;;16.20;98.80;;;;;;6172557;23;20547;-88
2022/05/21 00:18:19;;;;;;;7.27;6.17;;;16.10;98.80;;;;;;6171480;23;20399;-88
2022/05/21 00:20:51;;;;;;;6.90;6.20;;;16.10;98.90;;;;;;6134423;23;20450;-86
2022/05/21 00:23:47;;;;;;;9.27;6.90;;;16.10;98.90;;;;;;6163088;23;20413;-85
2022/05/21 00:26:40;;;;;;;7.77;7.07;;;16.00;98.90;;;;;;6136263;23;20427;-85
2022/05/21 00:29:30;;;;;;;;;;;;;;;;;;;;;
2022/05/21 00:32:14;;;;;;;7.33;6.60;;;16.00;99.10;;;;;;6154585;23;20418;-85
2022/05/21 00:35:14;;;;;;;8.40;7.53;;;16.00;99.00;;;;;;6133303;23;20476;-86
2022/05/21 00:37:55;;;;;;;8.10;7.40;;;16.00;99.10;;;;;;6108721;23;20934;-84
2022/05/21 00:40:49;;;;;;;8.63;7.83;;;16.00;99.10;;;;;;6117742;23;20534;-86
2022/05/21 00:43:50;;;;;;;8.10;7.40;;;16.10;99.10;;;;;;6132335;23;20409;-86
2022/05/21 00:46:39;;;;;;;8.30;7.50;;;16.10;98.70;;;;;;6105412;23;20489;-84
2022/05/21 00:49:20;;;;;;;8.53;7.10;;;16.30;98.30;;;;;;6124099;23;20422;-85
2022/05/21 00:52:10;;;;;;;9.20;8.23;;;16.30;98.20;;;;;;6127378;23;20442;-85
2022/05/21 00:54:48;;;;;;;8.63;7.83;;;16.20;98.50;;;;;;6126982;23;20422;-85
2022/05/21 00:57:37;;;;;;;8.40;7.60;;;16.00;98.80;;;;;;6141201;23;20435;-86
2022/05/21 01:00:42;;;;;;;10.10;8.13;;;15.80;99.30;;;;;;6136282;23;20419;-87
2022/05/21 01:03:34;;;;;;;7.83;6.70;;;15.80;99.50;;;;;;6143378;23;20459;-90
2022/05/21 01:06:13;;;;;;;8.73;7.80;;;15.80;99.90;;;;;;6148758;23;20510;-86
2022/05/21 01:09:00;;;;;;;7.70;7.00;;;15.70;99.70;;;;;;6152116;23;20413;-87
2022/05/21 01:11:30;;;;;;;8.50;7.67;;;15.70;99.80;;;;;;6146793;23;20477;-84
2022/05/21 01:14:20;;;;;;;10.57;8.27;;;15.70;99.90;;;;;;6129992;23;20486;-85
2022/05/21 01:17:03;;;;;;;8.80;7.80;;;15.70;99.90;;;;;;6129647;23;20748;-85
2022/05/21 01:22:57;;;;;;;8.47;7.43;;;15.70;99.90;;;;;;6142731;23;20434;-86
2022/05/21 01:25:29;;;;;;;8.33;7.27;;;15.70;99.90;;;;;;6124870;23;20513;-86
2022/05/21 01:28:13;;;;;;;7.50;6.80;;;15.70;99.90;;;;;;6132935;23;20419;-86
2022/05/21 01:31:01;;;;;;;8.40;7.07;;;15.70;99.90;;;;;;6125496;23;20410;-86
2022/05/21 01:33:44;;;;;;;7.20;6.50;;;15.70;99.90;;;;;;6123547;23;20838;-86
2022/05/21 01:36:21;;;;;;;7.13;5.60;;;15.60;99.90;;;;;;6124884;23;20434;-85
2022/05/21 01:38:57;;;;;;;7.27;6.57;;;15.70;99.70;;;;;;6152855;23;20505;-86
2022/05/21 01:41:30;;;;;;;7.60;6.90;;;15.70;99.80;;;;;;6130244;23;20493;-87
2022/05/21 01:47:07;;;;;;;6.17;5.57;;;15.50;99.90;;;;;;6152668;23;20453;-87
2022/05/21 01:49:43;;;;;;;7.50;5.20;;;15.50;99.90;;;;;;6132004;23;20847;-87
2022/05/21 01:52:12;;;;;;;7.43;5.20;;;15.40;99.90;;;;;;6132385;23;20482;-88
2022/05/21 01:54:42;;;;;;;7.80;4.80;;;15.40;99.90;;;;;;6132186;23;20411;-85
2022/05/21 01:57:18;;;;;;;6.07;5.47;;;15.30;99.90;;;;;;6158146;23;20445;-87
2022/05/21 01:59:53;;;;;;;6.10;4.87;;;15.30;99.90;;;;;;6131894;23;20425;-88
2022/05/21 02:02:37;;;;;;;5.50;4.90;;;15.40;99.90;;;;;;6113834;23;20481;-87
2022/05/21 02:05:23;;;;;;;5.50;4.50;;;15.20;99.90;;;;;;6131771;23;20491;-90
2022/05/21 02:08:21;;;;;;;4.30;3.90;;;15.20;99.90;;;;;;6130758;23;20446;-87
2022/05/21 02:11:56;;;;;;;5.73;4.60;;;15.20;99.90;;;;;;6130246;23;20533;-86
2022/05/21 02:14:40;;;;;;;4.20;3.80;;;15.20;99.90;;;;;;6128265;23;21232;-87
2022/05/21 02:17:47;;;;;;;4.20;3.80;;;15.10;99.90;;;;;;6129003;23;20493;-85
2022/05/21 02:20:55;;;;;;;5.30;3.70;;;15.20;99.90;;;;;;6117649;23;20457;-88
2022/05/21 02:23:49;;;;;;;4.37;3.70;;;15.20;99.90;;;;;;6131713;23;20411;-86
2022/05/21 02:26:34;;;;;;;4.00;3.60;;;15.20;99.80;;;;;;6121010;23;20431;-87
2022/05/21 02:29:23;;;;;;;3.53;3.23;;;15.30;99.10;;;;;;6133095;23;20379;-86
2022/05/21 02:31:59;;;;;;;4.13;3.03;;;15.30;99.10;;;;;;6129831;23;20411;-86
2022/05/21 02:34:40;;;;;;;4.27;2.60;;;15.10;99.10;;;;;;6153957;23;20474;-85
2022/05/21 02:43:44;;;;;;;3.20;2.17;;;15.10;99.20;;;;;;6146417;23;21280;-86
2022/05/21 02:46:18;;;;;;;5.10;3.20;;;15.10;99.10;;;;;;6123253;23;20434;-87
2022/05/21 02:48:55;;;;;;;4.47;2.50;;;15.00;99.00;;;;;;6115912;23;20504;-89
2022/05/21 02:51:28;;;;;;;8.10;2.83;;;14.90;99.00;;;;;;6116905;23;20422;-87
2022/05/21 02:54:16;;;;;;;;;;;;;;;;;;;;;
2022/05/21 02:57:11;;;;;;;3.43;2.10;;;14.90;99.10;;;;;;6138116;23;20459;-86
2022/05/21 03:00:16;;;;;;;;;;;;;;;;;;;;;
2022/05/21 03:02:49;;;;;;;5.00;2.30;;;15.10;98.90;;;;;;6095757;23;20484;-85
2022/05/21 03:05:33;;;;;;;6.87;2.30;;;15.00;98.80;;;;;;6073129;23;20432;-87
2022/05/21 03:11:09;;;;;;;4.17;1.70;;;15.00;99.10;;;;;;6097059;23;20424;-86
2022/05/21 03:13:58;;;;;;;3.37;1.80;;;15.00;99.20;;;;;;6032305;23;20392;-86
2022/05/21 03:16:56;;;;;;;7.73;2.17;;;15.10;99.10;;;;;;6076451;23;20495;-87
2022/05/21 03:19:44;;;;;;;2.53;1.47;;;15.40;98.20;;;;;;6080101;23;20401;-86
2022/05/21 03:22:18;;;;;;;3.30;1.70;;;15.20;98.10;;;;;;6069106;23;20455;-87
2022/05/21 03:24:52;;;;;;;3.97;1.93;;;15.10;98.50;;;;;;6071624;23;20420;-86
2022/05/21 03:27:45;;;;;;;2.73;1.73;;;15.00;99.00;;;;;;6071739;23;20456;-88
2022/05/21 03:30:26;;;;;;;3.97;1.80;;;15.20;98.40;;;;;;6067851;23;20427;-87
2022/05/21 03:33:02;;;;;;;6.33;1.40;;;15.20;98.50;;;;;;6071359;23;20413;-87
2022/05/21 03:35:47;;;;;;;3.63;1.80;;;15.20;98.50;;;;;;6070683;23;20455;-85
2022/05/21 03:38:24;;;;;;;2.60;1.17;;;15.30;98.50;;;;;;6069127;23;20484;-86
2022/05/21 03:41:26;;;;;;;2.33;1.43;;;15.10;98.70;;;;;;6071336;23;20475;-88
2022/05/21 03:44:01;;;;;;;3.63;1.87;;;15.30;98.70;;;;;;6092260;23;20464;-87
2022/05/21 03:47:09;;;;;;;4.90;1.80;;;15.10;98.80;;;;;;6072058;23;20437;-88
2022/05/21 03:49:46;;;;;;;2.40;1.40;;;15.00;99.00;;;;;;6070766;23;20448;-87
2022/05/21 03:52:58;;;;;;;2.83;1.50;;;15.10;98.80;;;;;;6053292;23;20421;-87
2022/05/21 03:55:42;;;;;;;3.77;1.60;;;15.00;99.00;;;;;;6068011;23;20646;-83
2022/05/21 03:58:12;;;;;;;4.17;1.60;;;15.00;99.00;;;;;;6070096;23;20432;-86
2022/05/21 04:00:56;;;;;;;3.97;1.80;;;15.10;99.00;;;;;;6067785;23;21177;-86
2022/05/21 04:03:54;;;;;;;3.93;2.20;;;15.20;98.50;;;;;;6068421;23;20416;-87
2022/05/21 04:06:24;;;;;;;4.23;1.40;;;15.20;98.40;;;;;;6069517;23;20535;-87
2022/05/21 04:09:07;;;;;;;3.10;1.70;;;15.10;98.60;;;;;;6077144;23;20416;-86
2022/05/21 04:11:44;;;;;;;5.60;1.70;;;15.10;98.70;;;;;;6080605;23;20419;-85
2022/05/21 04:14:27;;;;;;;3.63;2.70;;;15.10;98.70;;;;;;6083586;23;20427;-88
2022/05/21 04:17:16;;;;;;;2.37;1.30;;;15.10;98.80;;;;;;6092583;23;20471;-88
2022/05/21 04:20:23;;;;;;;2.27;1.23;;;15.20;98.70;;;;;;6102175;23;20503;-86
2022/05/21 04:23:06;;;;;;;4.93;1.50;;;15.10;98.50;;;;;;6099794;23;20477;-85
2022/05/21 04:26:04;;;;;;;3.37;1.80;;;15.10;98.30;;;;;;6094791;23;20424;-83
2022/05/21 04:28:47;;;;;;;3.53;1.90;;;15.10;98.40;;;;;;6126821;23;20434;-87
2022/05/21 04:31:52;;;;;;;4.03;3.60;;;15.10;98.30;;;;;;6104452;23;20399;-87
2022/05/21 04:34:28;;;;;;;3.00;1.30;;;15.00;98.10;;;;;;6106076;23;20421;-86
2022/05/21 04:40:39;;;;;;;3.13;1.57;;;15.10;98.10;;;;;;6106685;23;20396;-86
2022/05/21 04:43:59;;;;;;;4.30;1.30;;;15.10;97.90;;;;;;6125598;23;20423;-85
2022/05/21 04:46:43;;;;;;;4.13;1.63;;;15.10;98.10;;;;;;6103444;23;20440;-86
2022/05/21 04:50:07;;;;;;;5.83;1.70;;;15.20;98.10;;;;;;6082195;23;20400;-86
2022/05/21 04:52:49;;;;;;;3.40;1.43;;;15.10;98.00;;;;;;6100897;23;20935;-87
2022/05/21 04:55:30;;;;;;;2.00;1.33;;;15.10;97.90;;;;;;6075371;23;20415;-86
2022/05/21 04:58:13;;;;;;;;;;;;;;;;;;;;;
2022/05/21 05:01:14;;;;;;;;;;;;;;;;;;;;;
2022/05/21 05:04:04;;;;;;;7.10;1.93;;;15.10;98.30;;;;;;6123202;23;20404;-87
2022/05/21 05:06:44;;;;;;;5.90;4.60;;;15.20;98.20;;;;;;6124095;23;20438;-89
2022/05/21 05:09:27;;;;;;;2.90;1.80;;;15.20;98.00;;;;;;6099014;23;20494;-88
2022/05/21 05:12:03;;;;;;;3.07;2.13;;;15.20;98.00;;;;;;6099897;23;20443;-84
2022/05/21 05:15:16;;;;;;;5.63;1.97;;;15.30;98.20;;;;;;6101084;23;20472;-87
2022/05/21 05:21:43;;;;;;;5.30;2.17;;;15.30;97.90;;;;;;6118243;23;20522;-86
2022/05/21 05:24:28;;;;;;;;;;;;;;;;;;;;;
2022/05/21 05:27:23;;;;;;;3.53;1.67;;;15.40;97.90;;;;;;6103955;23;20467;-88
2022/05/21 05:30:32;;;;;;;3.13;1.67;;;15.40;98.00;;;;;;6122737;23;20502;-84
2022/05/21 05:33:19;;;;;;;2.63;1.80;;;15.40;98.10;;;;;;6115925;23;20392;-87
2022/05/21 05:35:54;;;;;;;2.77;2.10;;;15.40;98.10;;;;;;6121515;23;20455;-86
2022/05/21 05:38:38;;;;;;;4.33;2.07;;;15.40;98.30;;;;;;6123092;23;20790;-87
2022/05/21 05:41:16;;;;;;;4.20;2.07;;;15.40;98.20;;;;;;6123456;23;20407;-86
2022/05/21 05:44:20;;;;;;;4.33;2.20;;;15.40;98.00;;;;;;6101383;23;20412;-87
2022/05/21 05:47:17;;;;;;;4.50;1.93;;;15.40;98.10;;;;;;6121891;23;20510;-84
2022/05/21 05:50:16;;;;;;;3.17;1.50;;;15.40;97.80;;;;;;6112412;23;20400;-86
2022/05/21 05:53:24;;;;;;;6.57;3.30;;;15.40;97.90;;;;;;6097567;23;20403;-84
2022/05/21 05:57:11;;;;;;;4.00;2.20;;;15.40;97.90;;;;;;6093068;23;20486;-85
2022/05/21 06:03:58;;;;;;;4.20;2.40;;;15.70;97.90;;;;;;6129436;23;20703;-85
2022/05/21 06:06:12;;;;;;;6.53;3.30;;;15.80;97.60;;;;;;6115670;23;20439;-86
2022/05/21 06:08:55;;;;;;;4.53;2.37;;;15.90;97.30;;;;;;6122502;23;20415;-85
2022/05/21 06:11:56;;;;;;;9.00;3.50;;;15.80;97.20;;;;;;6111673;23;20484;-87
2022/05/21 06:14:53;;;;;;;6.83;2.37;;;15.90;97.30;;;;;;6121013;23;20430;-86
2022/05/21 06:17:54;;;;;;;3.87;2.43;;;15.90;97.10;;;;;;6136595;23;20456;-87
2022/05/21 06:20:44;;;;;;;8.27;3.33;;;16.00;97.00;;;;;;6100475;23;20411;-88
2022/05/21 06:23:37;;;;;;;6.10;2.20;;;16.20;96.80;;;;;;6078467;23;20447;-87
2022/05/21 06:26:48;;;;;;;4.80;2.23;;;16.10;96.50;;;;;;6089395;23;20460;-86
2022/05/21 06:29:39;;;;;;;2.80;2.27;;;16.20;96.20;;;;;;6124580;23;20450;-86
2022/05/21 06:32:25;;;;;;;3.37;2.33;;;16.20;96.40;;;;;;6103053;23;20440;-87
2022/05/21 06:35:08;;;;;;;4.47;2.70;;;16.40;96.30;;;;;;6100300;23;20433;-87
2022/05/21 06:37:36;;;;;;;6.10;2.57;;;16.60;96.00;;;;;;6098606;23;20463;-86
2022/05/21 06:40:21;;;;;;;4.30;2.10;;;16.50;95.30;;;;;;6070580;23;20468;-87
2022/05/21 06:43:23;;;;;;;4.27;2.03;;;16.30;95.80;;;;;;6056047;23;20444;-87
2022/05/21 06:46:54;;;;;;;5.63;2.70;;;16.20;96.10;;;;;;6094161;23;20505;-86
2022/05/21 06:49:46;;;;;;;7.60;2.37;;;16.20;96.20;;;;;;6056078;23;20405;-87
2022/05/21 06:52:42;;;;;;;4.77;3.50;;;16.20;96.20;;;;;;6094516;23;20444;-87
2022/05/21 06:55:10;;;;;;;7.33;3.10;;;16.20;96.50;;;;;;6075504;23;20420;-87
2022/05/21 06:57:39;;;;;;;3.43;2.40;;;16.20;96.40;;;;;;6085849;23;20432;-88
2022/05/21 07:00:11;;;;;;;6.90;3.20;;;16.20;96.20;;;;;;6087470;23;20424;-86
2022/05/21 07:02:40;;;;;;;5.57;2.70;;;16.10;96.20;;;;;;6107656;23;20441;-87
2022/05/21 07:09:08;;;;;;;6.43;3.00;;;16.10;96.50;;;;;;6096619;23;20873;-85
2022/05/21 07:11:56;;;;;;;6.30;3.20;;;16.10;96.40;;;;;;6071289;23;20412;-88
2022/05/21 07:14:52;;;;;;;9.03;4.07;;;16.00;96.30;;;;;;6072455;23;20489;-86
2022/05/21 07:17:27;;;;;;;5.27;2.90;;;16.00;96.80;;;;;;6070414;23;20436;-89
2022/05/21 07:19:57;;;;;;;6.77;2.60;;;16.10;96.80;;;;;;6095143;23;20416;-86
2022/05/21 07:22:51;;;;;;;5.83;3.00;;;16.10;96.70;;;;;;6096630;23;20440;-88
2022/05/21 07:25:25;;;;;;;9.70;3.33;;;16.10;96.70;;;;;;6074307;23;20418;-87
2022/05/21 07:28:09;;;;;;;4.73;3.00;;;16.20;96.70;;;;;;6073947;23;20453;-88
2022/05/21 07:31:13;;;;;;;4.47;2.60;;;16.60;96.20;;;;;;6073627;23;20419;-86
2022/05/21 07:34:10;;;;;;;6.53;3.17;;;16.80;95.40;;;;;;6094012;23;20401;-85
2022/05/21 07:36:48;;;;;;;7.93;3.90;;;17.20;94.70;;;;;;6073595;23;20516;-85
2022/05/21 07:39:25;;;;;;;7.17;2.40;;;17.20;94.10;;;;;;6076407;23;20928;-85
2022/05/21 07:42:11;;;;;;;6.80;2.80;;;17.40;94.00;;;;;;6082096;23;20478;-85
2022/05/21 07:45:21;;;;;;;3.70;2.20;;;17.40;93.60;;;;;;6077931;23;20412;-84
2022/05/21 07:48:35;;;;;;;4.00;2.60;;;17.30;93.30;;;;;;6026603;23;20430;-85
2022/05/21 07:51:32;;;;;;;7.60;3.30;;;17.30;93.30;;;;;;6018053;23;20425;-85
2022/05/21 07:54:01;;;;;;;7.90;3.00;;;17.20;92.80;;;;;;6015946;23;20525;-86
2022/05/21 07:56:36;;;;;;;5.23;3.30;;;17.30;92.60;;;;;;6020485;23;20446;-88
2022/05/21 07:59:06;;;;;;;6.53;3.20;;;17.50;92.70;;;;;;6021638;23;20448;-84
2022/05/21 08:01:40;;;;;;;6.00;2.80;;;17.60;92.70;;;;;;6032967;23;20422;-86
2022/05/21 08:04:10;;;;;;;4.33;2.83;;;17.90;92.30;;;;;;6044978;23;20415;-84
2022/05/21 08:06:48;;;;;;;5.60;2.80;;;18.00;91.50;;;;;;6016528;23;20806;-85
2022/05/21 08:09:38;;;;;;;7.67;3.10;;;18.00;91.50;;;;;;6016034;23;20424;-84
2022/05/21 08:12:26;;;;;;;4.70;3.50;;;18.30;91.50;;;;;;6016087;23;20414;-86
2022/05/21 08:15:08;;;;;;;4.30;2.97;;;18.40;91.10;;;;;;6015883;23;20509;-87
2022/05/21 08:17:35;;;;;;;4.40;2.60;;;18.60;90.70;;;;;;6015651;23;20992;-86
2022/05/21 08:20:11;;;;;;;6.73;4.97;;;18.50;90.10;;;;;;6073572;23;20412;-84
2022/05/21 08:29:39;;;;;;;3.70;2.93;;;17.90;91.50;;;;;;6099890;23;20491;-86
2022/05/21 08:32:25;;;;;;;3.43;2.30;;;18.30;90.40;;;;;;6098704;23;20416;-86
2022/05/21 08:38:24;;;;;;;5.03;2.53;;;19.60;82.50;;;;;;6073038;23;20386;-86
2022/05/21 08:41:58;;;;;;;4.87;2.47;;;19.60;82.20;;;;;;6049319;23;20472;-85
2022/05/21 08:45:26;;;;;;;2.90;2.40;;;21.00;78.10;;;;;;5910781;24;20439;-86
2022/05/21 08:48:37;;;;;;;7.60;2.70;;;21.20;73.20;;;;;;5916397;24;20390;-86
2022/05/21 08:58:45;;;;;;;3.73;2.37;;;22.80;66.40;;;;;;6044584;23;20419;-87
2022/05/21 09:02:24;;;;;;;12.20;2.70;;;21.10;69.60;;;;;;5921094;24;20637;-86
2022/05/21 09:05:11;;;;;;;5.03;2.50;;;20.10;74.80;;;;;;5874569;24;20408;-88
2022/05/21 09:08:07;;;;;;;5.77;2.70;;;20.20;76.20;;;;;;5898399;24;20498;-86
2022/05/21 09:11:31;;;;;;;3.93;2.37;;;20.20;76.60;;;;;;5969399;23;20409;-85
2022/05/21 09:14:53;;;;;;;;;;;;;;;;;;;;;
2022/05/21 09:17:51;;;;;;;4.10;2.23;;;19.80;77.20;;;;;;5968716;23;20441;-84
2022/05/21 09:20:26;;;;;;;3.70;2.03;;;20.80;74.40;;;;;;5980456;23;20416;-85
2022/05/21 09:23:20;;;;;;;5.33;2.10;;;20.80;73.60;;;;;;5983744;23;20502;-85
2022/05/21 09:26:41;;;;;;;4.23;2.37;;;21.00;73.70;;;;;;5982771;23;20492;-85
2022/05/21 09:30:05;;;;;;;7.17;2.23;;;21.60;72.00;;;;;;5964410;24;20455;-88
2022/05/21 09:33:28;;;;;;;3.50;1.73;;;22.30;69.00;;;;;;5865181;24;20501;-87
2022/05/21 09:37:20;;;;;;;3.20;1.67;;;23.40;63.50;;;;;;5926083;24;20429;-87
2022/05/21 09:50:57;;;;;;;3.97;2.23;;;23.50;59.10;;;;;;6115158;23;20451;-90
2022/05/21 09:54:20;;;;;;;4.83;1.93;;;23.60;56.50;;;;;;5959589;23;20420;-88
2022/05/21 09:57:30;;;;;;;2.33;1.60;;;23.80;56.10;;;;;;5958859;23;20472;-88
2022/05/21 10:00:28;;;;;;;4.73;2.07;;;24.30;56.00;;;;;;6070938;23;20535;-85
2022/05/21 10:03:04;;;;;;;3.87;1.97;;;24.60;56.20;;;;;;6070079;23;20878;-86
2022/05/21 10:06:15;;;;;;;4.10;2.00;;;24.00;55.40;;;;;;6096495;23;20452;-87
2022/05/21 10:13:47;;;;;;;3.07;1.83;;;23.90;55.40;;;;;;5937828;24;20401;-89
2022/05/21 10:17:01;;;;;;;4.77;2.47;;;23.70;55.60;;;;;;5926998;24;20528;-85
2022/05/21 10:24:03;;;;;;;;;;;;;;;;;;;;;
2022/05/21 10:27:26;;;;;;;5.33;3.80;;;24.30;52.80;;;;;;5999567;23;20448;-89
2022/05/21 10:30:50;;;;;;;2.43;2.00;;;24.20;53.20;;;;;;6078615;23;20408;-86
2022/05/21 10:34:28;;;;;;;4.63;1.97;;;24.30;52.70;;;;;;6075718;23;20444;-87
2022/05/21 10:37:42;;;;;;;3.90;2.03;;;24.30;53.10;;;;;;6081487;23;20448;-89
2022/05/21 10:40:34;;;;;;;2.80;2.00;;;24.00;54.10;;;;;;6086195;23;20421;-90
2022/05/21 10:43:39;;;;;;;4.07;1.87;;;24.00;54.60;;;;;;6111991;23;20455;-91
2022/05/21 10:47:06;;;;;;;3.80;2.00;;;23.50;53.60;;;;;;6087435;23;20468;-88
2022/05/21 10:50:45;;;;;;;3.73;2.07;;;23.50;54.10;;;;;;5984095;23;20431;-85
2022/05/21 10:54:05;;;;;;;5.70;2.07;;;23.80;54.60;;;;;;5979600;24;20523;-87
2022/05/21 11:00:16;;;;;;;4.03;2.13;;;23.60;54.10;;;;;;6099897;23;20441;-88
2022/05/21 11:03:20;;;;;;;3.93;2.60;;;23.50;54.50;;;;;;6069904;23;20991;-87
2022/05/21 11:06:36;;;;;;;6.20;2.20;;;23.00;54.40;;;;;;6071407;23;20459;-86
2022/05/21 11:09:44;;;;;;;5.77;2.50;;;22.50;56.30;;;;;;6068920;23;20417;-90
2022/05/21 11:12:17;;;;;;;4.00;2.40;;;22.40;56.60;;;;;;6073120;23;20419;-86
2022/05/21 11:15:05;;;;;;;4.00;2.50;;;22.30;57.10;;;;;;6100342;23;20413;-87
2022/05/21 11:17:46;;;;;;;7.13;2.27;;;22.50;57.00;;;;;;6071872;23;20439;-89
2022/05/21 11:20:49;;;;;;;6.10;3.77;;;22.40;56.60;;;;;;6073413;23;20932;-86
2022/05/21 11:23:34;;;;;;;3.33;2.30;;;22.10;57.30;;;;;;6067535;23;20476;-87
2022/05/21 11:26:45;;;;;;;4.30;2.60;;;22.20;58.30;;;;;;6069003;23;21167;-85
2022/05/21 11:29:49;;;;;;;5.57;2.50;;;22.40;58.60;;;;;;6078306;23;20885;-86
2022/05/21 11:38:53;;;;;;;4.13;2.20;;;23.20;56.30;;;;;;6043077;23;20409;-89
2022/05/21 11:42:05;;;;;;;3.57;2.10;;;23.40;55.20;;;;;;6077577;23;20412;-88
2022/05/21 11:45:11;;;;;;;3.30;2.20;;;23.40;54.30;;;;;;6069542;23;20412;-88
2022/05/21 11:48:19;;;;;;;4.43;2.13;;;23.10;54.60;;;;;;6094169;23;20937;-88
2022/05/21 11:51:28;;;;;;;3.87;2.40;;;23.00;55.60;;;;;;6051144;23;20416;-88
2022/05/21 11:54:04;;;;;;;2.20;2.00;;;22.90;56.20;;;;;;6062825;23;20487;-86
2022/05/21 11:57:05;;;;;;;3.33;2.30;;;23.10;55.80;;;;;;6073404;23;20420;-89
2022/05/21 11:59:53;;;;;;;3.33;2.27;;;22.90;55.00;;;;;;6111891;23;20484;-87
2022/05/21 12:03:02;;;;;;;5.13;2.03;;;22.90;55.60;;;;;;6098854;23;20423;-87
2022/05/21 12:05:44;;;;;;;6.47;2.47;;;22.80;55.80;;;;;;6098937;23;21046;-87
2022/05/21 12:08:36;;;;;;;3.47;2.20;;;22.90;56.60;;;;;;6101981;23;20829;-87
2022/05/21 12:11:39;;;;;;;4.03;2.47;;;23.10;56.40;;;;;;6098536;23;20479;-85
2022/05/21 12:14:24;;;;;;;6.13;2.07;;;23.30;55.80;;;;;;6125064;23;20740;-87
2022/05/21 12:17:01;;;;;;;3.17;2.20;;;23.40;55.70;;;;;;6101227;23;20446;-87
2022/05/21 12:19:49;;;;;;;4.70;2.33;;;23.60;54.40;;;;;;6124933;23;20400;-86
2022/05/21 12:26:37;;;;;;;3.57;2.37;;;23.70;54.40;;;;;;6079889;23;20439;-88
2022/05/21 12:30:12;;;;;;;2.37;1.80;;;23.80;53.60;;;;;;6105880;23;20513;-87
2022/05/21 12:32:56;;;;;;;3.37;2.20;;;24.10;53.00;;;;;;6097018;23;20388;-88
2022/05/21 12:35:59;;;;;;;2.97;2.10;;;24.00;53.30;;;;;;6135613;23;20406;-88
2022/05/21 12:39:32;;;;;;;4.87;3.20;;;24.00;53.80;;;;;;6063583;23;20420;-87
2022/05/21 12:46:17;;;;;;;4.63;2.20;;;23.50;54.30;;;;;;6050613;23;20429;-87
2022/05/21 12:52:09;;;;;;;6.23;2.10;;;23.40;54.20;;;;;;6136916;23;20462;-84
2022/05/21 12:54:49;;;;;;;4.93;2.40;;;23.40;53.10;;;;;;6111243;23;20455;-85
2022/05/21 12:57:39;;;;;;;3.83;2.53;;;23.40;53.80;;;;;;6087558;23;20435;-86
2022/05/21 13:00:36;;;;;;;5.43;3.33;;;23.40;54.20;;;;;;6101938;23;20423;-85
2022/05/21 13:03:39;;;;;;;4.67;2.63;;;23.00;54.50;;;;;;6102131;23;20538;-87
2022/05/21 13:06:43;;;;;;;4.40;2.43;;;22.80;54.80;;;;;;6123514;23;20506;-87
2022/05/21 13:09:59;;;;;;;5.67;2.53;;;23.10;55.40;;;;;;6117957;23;20412;-85
2022/05/21 13:12:44;;;;;;;3.77;2.57;;;23.20;54.70;;;;;;5955397;24;20429;-87
2022/05/21 13:15:46;;;;;;;4.20;2.30;;;22.90;54.80;;;;;;6125784;23;20479;-85
2022/05/21 13:22:39;;;;;;;3.87;1.97;;;23.20;55.00;;;;;;6125439;23;20985;-86
2022/05/21 13:25:14;;;;;;;4.13;2.20;;;23.60;54.50;;;;;;6100667;23;20956;-84
2022/05/21 13:32:16;;;;;;;6.40;3.80;;;23.70;51.60;;;;;;6090031;23;20868;-85
2022/05/21 13:34:48;;;;;;;2.90;2.20;;;23.70;51.70;;;;;;6125503;23;20497;-87
2022/05/21 13:40:59;;;;;;;4.10;2.43;;;23.80;52.80;;;;;;5970111;23;20467;-86
2022/05/21 13:47:35;;;;;;;3.70;2.43;;;23.70;52.70;;;;;;5972051;24;20431;-85
2022/05/21 13:50:47;;;;;;;4.33;2.20;;;23.50;52.60;;;;;;5978592;24;20404;-87
2022/05/21 13:57:30;;;;;;;4.77;2.60;;;23.80;51.60;;;;;;5868784;24;20504;-86
2022/05/21 14:00:59;;;;;;;3.20;2.30;;;23.80;51.00;;;;;;5868239;24;20459;-85
2022/05/21 14:04:14;;;;;;;3.33;2.37;;;23.70;51.40;;;;;;5846149;24;20451;-87
2022/05/21 14:07:32;;;;;;;4.43;1.87;;;23.50;51.20;;;;;;5827832;24;20406;-85
2022/05/21 14:10:59;;;;;;;8.47;2.83;;;23.30;50.60;;;;;;5935363;23;20437;-86
2022/05/21 14:14:23;;;;;;;2.90;2.07;;;23.20;51.00;;;;;;5987269;23;20419;-86
2022/05/21 14:17:11;;;;;;;2.93;2.17;;;23.10;50.70;;;;;;6010081;23;20443;-87
2022/05/21 14:20:22;;;;;;;4.97;2.40;;;23.10;51.00;;;;;;6014230;23;20792;-85
2022/05/21 14:23:30;;;;;;;4.87;2.30;;;23.30;50.80;;;;;;5973065;23;20435;-86
2022/05/21 14:27:01;;;;;;;2.43;1.70;;;23.60;49.90;;;;;;5996061;23;20447;-86
2022/05/21 14:34:32;;;;;;;3.33;1.87;;;23.30;51.70;;;;;;6102661;23;20971;-87
2022/05/21 14:38:03;;;;;;;3.33;2.10;;;23.40;51.10;;;;;;6106428;23;20408;-88
2022/05/21 14:52:49;;;;;;;3.07;2.17;;;23.40;50.40;;;;;;6064829;23;20772;-85
2022/05/21 14:53:28;;;;;;;4.90;2.47;;;23.60;50.40;;;;;;6064081;23;20866;-85
2022/05/21 15:00:20;;;;;;;3.27;2.13;;;23.50;51.50;;;;;;6056808;23;20401;-86
2022/05/21 15:03:35;;;;;;;1.67;1.53;;;23.60;52.00;;;;;;6023299;23;20440;-84
2022/05/21 15:10:04;;;;;;;;;;;;;;;;;;;;;
2022/05/21 15:13:21;;;;;;;2.13;1.80;;;23.30;51.40;;;;;;6092203;23;20931;-85
2022/05/21 15:16:11;;;;;;;3.87;1.87;;;23.30;51.40;;;;;;6115816;23;20455;-87
2022/05/21 15:18:59;;;;;;;2.20;1.67;;;23.40;51.50;;;;;;6017058;23;20407;-84
2022/05/21 15:25:13;;;;;;;6.90;2.53;;;23.30;51.70;;;;;;6006353;23;20442;-85
2022/05/21 15:28:04;;;;;;;4.00;2.30;;;23.40;51.60;;;;;;5980604;23;20491;-85
2022/05/21 15:30:55;;;;;;;4.10;2.00;;;23.40;52.40;;;;;;5982835;23;20802;-86
2022/05/21 15:33:53;;;;;;;3.60;2.20;;;23.40;52.20;;;;;;5982952;23;20547;-88
2022/05/21 15:36:36;;;;;;;2.50;1.90;;;23.30;52.50;;;;;;5914115;23;20430;-84
2022/05/21 15:39:08;;;;;;;3.50;1.97;;;23.30;52.40;;;;;;6007249;23;20427;-85
2022/05/21 15:41:49;;;;;;;4.43;2.33;;;23.30;52.70;;;;;;6007270;23;20426;-86
2022/05/21 15:44:52;;;;;;;5.73;2.50;;;23.40;52.80;;;;;;5982931;23;20450;-86
2022/05/21 15:47:28;;;;;;;1.90;1.67;;;23.50;52.60;;;;;;6064924;23;20513;-85
2022/05/21 15:50:24;;;;;;;6.13;2.13;;;23.50;51.70;;;;;;6087057;23;20567;-83
2022/05/21 15:53:44;;;;;;;;;;;;;;;;;;;;;
2022/05/21 15:56:50;;;;;;;8.63;5.80;;;23.30;52.00;;;;;;6049778;23;20996;-84
2022/05/21 16:00:01;;;;;;;;;;;;;;;;;;;;;
2022/05/21 16:03:21;;;;;;;3.30;2.07;;;23.50;52.40;;;;;;6067121;23;20428;-85
2022/05/21 16:06:04;;;;;;;;;;;;;;;;;;;;;
2022/05/21 16:08:53;;;;;;;4.10;3.27;;;23.00;52.70;;;;;;6066851;23;20413;-86
2022/05/21 16:11:26;;;;;;;3.90;2.00;;;22.90;53.20;;;;;;6065072;23;20394;-85
2022/05/21 16:14:22;;;;;;;3.97;2.07;;;22.60;52.20;;;;;;6060921;23;20429;-85
2022/05/21 16:17:54;;;;;;;4.30;1.90;;;22.60;52.60;;;;;;6070641;23;20972;-84
2022/05/21 16:21:16;;;;;;;4.37;2.17;;;22.80;53.20;;;;;;6059592;23;20476;-87
2022/05/21 16:28:03;;;;;;;4.33;1.80;;;22.80;53.00;;;;;;5922271;24;20439;-85
2022/05/21 16:30:23;;;;;;;5.40;2.40;;;22.90;52.80;;;;;;5947129;24;20455;-86
2022/05/21 16:33:20;;;;;;;2.57;1.53;;;22.90;53.10;;;;;;5956286;24;20439;-86
2022/05/21 16:36:07;;;;;;;3.10;1.70;;;22.80;53.30;;;;;;5929087;24;20441;-87
2022/05/21 16:38:40;;;;;;;3.33;1.47;;;22.90;53.50;;;;;;5927184;24;20948;-86
2022/05/21 16:41:09;;;;;;;2.67;1.70;;;22.90;53.30;;;;;;5950390;24;20576;-85
2022/05/21 16:43:57;;;;;;;2.77;1.50;;;22.70;53.40;;;;;;5949608;24;20452;-86
2022/05/21 16:46:30;;;;;;;3.80;2.37;;;22.70;53.40;;;;;;5951346;24;20437;-87
2022/05/21 16:49:41;;;;;;;3.90;2.20;;;22.80;53.30;;;;;;5950691;24;20425;-87
2022/05/21 16:52:34;;;;;;;2.37;1.80;;;22.80;53.20;;;;;;5950090;24;20531;-86
2022/05/21 16:55:33;;;;;;;2.93;1.67;;;22.70;53.80;;;;;;5986956;23;20423;-88
2022/05/21 16:58:35;;;;;;;3.80;1.93;;;22.60;53.80;;;;;;6035120;23;20485;-86
2022/05/21 17:01:41;;;;;;;8.63;2.33;;;22.70;53.90;;;;;;6028263;23;20413;-85
2022/05/21 17:04:23;;;;;;;3.70;2.13;;;22.60;54.20;;;;;;6041080;23;20502;-87
2022/05/21 17:07:25;;;;;;;2.50;1.70;;;22.60;54.00;;;;;;6038448;23;20438;-86
2022/05/21 17:10:11;;;;;;;6.77;2.23;;;22.50;54.10;;;;;;6022396;23;20745;-86
2022/05/21 17:12:44;;;;;;;4.10;1.90;;;22.40;53.90;;;;;;6039021;23;20921;-88
2022/05/21 17:15:31;;;;;;;3.93;2.30;;;22.50;54.30;;;;;;6038320;23;20438;-89
2022/05/21 17:18:13;;;;;;;3.50;1.90;;;22.50;54.60;;;;;;6039894;23;20427;-86
2022/05/21 17:20:51;;;;;;;4.60;2.80;;;22.60;54.60;;;;;;6018445;23;21177;-87
2022/05/21 17:23:36;;;;;;;2.10;1.53;;;22.60;54.60;;;;;;6019572;23;20454;-86
2022/05/21 17:26:24;;;;;;;6.47;2.50;;;22.60;54.30;;;;;;6042316;23;20828;-87
2022/05/21 17:33:20;;;;;;;;;;;;;;;;;;;;;
2022/05/21 17:38:29;;;;;;;4.30;2.13;;;22.30;54.20;;;;;;6130494;23;20441;-87
2022/05/21 17:41:02;;;;;;;3.87;1.77;;;22.30;53.80;;;;;;6128778;23;20800;-87